createdAt,value
2023-03-23T15:58:58.338Z,62.88
2023-03-23T16:01:08.480Z,62.70
2023-03-23T16:03:17.747Z,61.52
2023-03-23T16:05:21.593Z,61.15
2023-03-23T16:07:28.723Z,60.65
2023-03-23T16:09:33.170Z,60.47
2023-03-23T16:11:37.733Z,60.66
2023-03-23T16:13:43.142Z,59.93
2023-03-23T16:15:49.505Z,59.77
2023-03-23T16:17:54.137Z,60.02
2023-03-23T16:19:58.617Z,59.56
2023-03-23T16:22:03.165Z,60.07
2023-03-23T16:24:10.238Z,60.01
2023-03-23T16:26:14.693Z,60.77
2023-03-23T16:28:20.933Z,60.48
2023-03-23T16:30:27.898Z,61.23
2023-03-23T16:34:37.324Z,61.78
2023-03-23T16:36:42.386Z,62.15
2023-03-23T16:38:49.813Z,62.62
2023-03-23T16:40:58.308Z,63.08
2023-03-23T16:43:08.246Z,63.72
2023-03-23T16:45:13.875Z,63.84
2023-03-23T16:47:19.299Z,64.73
2023-03-23T16:49:24.803Z,64.77
2023-03-23T16:51:28.492Z,64.23
2023-03-23T16:53:34.219Z,63.96
2023-03-23T16:55:39.285Z,63.53
2023-03-23T16:57:45.736Z,63.42
2023-03-23T16:59:49.829Z,63.73
2023-03-23T17:01:54.641Z,63.54
2023-03-23T17:04:00.573Z,63.84
2023-03-23T17:06:06.378Z,64.09
2023-03-23T17:08:11.035Z,65.03
2023-03-23T17:10:16.351Z,65.05
2023-03-23T17:12:20.280Z,65.64
2023-03-23T17:14:26.396Z,65.49
2023-03-23T17:16:30.789Z,65.98
2023-03-23T17:18:34.336Z,65.97
2023-03-23T17:20:41.909Z,66.77
2023-03-23T17:22:50.109Z,66.51
2023-03-23T17:24:54.895Z,66.81
2023-03-23T17:26:59.906Z,66.59
2023-03-23T17:29:04.389Z,67.20
2023-03-23T17:31:09.681Z,67.83
2023-03-23T17:33:14.498Z,67.26
2023-03-23T17:35:18.821Z,67.42
2023-03-23T17:37:23.831Z,67.47
2023-03-23T17:39:28.555Z,67.26
2023-03-23T17:41:32.408Z,67.04
2023-03-23T17:43:37.384Z,66.92
2023-03-23T17:45:45.064Z,67.19
2023-03-23T17:47:53.918Z,66.95
2023-03-23T17:49:59.024Z,66.74
2023-03-23T17:52:03.783Z,66.83
2023-03-23T17:54:08.762Z,66.63
2023-03-23T17:56:12.375Z,67.04
2023-03-23T17:58:16.938Z,67.34
2023-03-23T18:00:22.233Z,67.77
2023-03-23T18:02:25.929Z,67.92
2023-03-23T18:04:31.385Z,69.10
2023-03-23T18:06:34.941Z,69.51
2023-03-23T18:08:39.407Z,69.90
2023-03-23T18:10:43.203Z,70.38
2023-03-23T18:12:47.252Z,70.67
2023-03-23T18:14:51.161Z,71.19
2023-03-23T18:16:55.830Z,70.99
2023-03-23T18:18:59.687Z,71.42
2023-03-23T18:21:08.710Z,71.56
2023-03-23T18:23:12.350Z,72.17
2023-03-23T18:25:16.459Z,71.76
2023-03-23T18:27:20.767Z,71.82
2023-03-23T18:29:25.231Z,72.16
2023-03-23T18:31:29.370Z,71.99
2023-03-23T18:33:32.738Z,72.21
2023-03-23T18:35:36.982Z,72.83
2023-03-23T18:37:43.870Z,72.97
2023-03-23T18:39:47.905Z,72.83
2023-03-23T18:41:51.897Z,73.34
2023-03-23T18:43:57.706Z,73.46
2023-03-23T18:46:02.023Z,73.80
2023-03-23T18:48:06.359Z,73.97
2023-03-23T18:50:12.468Z,73.68
2023-03-23T18:52:16.840Z,73.76
2023-03-23T18:54:22.115Z,74.12
2023-03-23T18:56:26.879Z,74.06
2023-03-23T18:58:30.562Z,74.48
2023-03-23T19:00:34.917Z,74.28
2023-03-23T19:02:40.227Z,74.49
2023-03-23T19:04:43.854Z,74.40
2023-03-23T19:06:47.479Z,73.77
2023-03-23T19:08:53.883Z,74.33
2023-03-23T19:11:03.943Z,74.01
2023-03-23T19:13:08.932Z,73.84
2023-03-23T19:15:13.267Z,74.14
2023-03-23T19:17:17.861Z,74.41
2023-03-23T19:19:22.129Z,74.63
2023-03-23T19:21:29.806Z,75.09
2023-03-23T19:23:35.543Z,76.54
2023-03-23T19:25:39.228Z,77.86
2023-03-23T19:28:27.461Z,78.63
2023-03-23T19:30:10.914Z,78.95
2023-03-23T19:32:14.886Z,79.66
2023-03-23T19:34:19.539Z,80.25
2023-03-23T19:36:24.315Z,80.56
2023-03-23T19:38:28.616Z,81.25
2023-03-23T19:40:40.236Z,81.18
2023-03-23T19:42:47.840Z,81.74
2023-03-23T19:44:53.445Z,81.53
2023-03-23T19:46:57.809Z,82.17
2023-03-23T19:49:02.436Z,82.08
2023-03-23T19:51:07.317Z,81.93
2023-03-23T19:53:13.255Z,82.37
2023-03-23T19:55:18.249Z,82.41
2023-03-23T19:57:23.878Z,82.81
2023-03-23T19:59:31.297Z,82.89
2023-03-23T20:01:36.592Z,83.57
2023-03-23T20:03:41.957Z,83.08
2023-03-23T20:05:46.004Z,81.11
2023-03-23T20:07:51.974Z,79.78
2023-03-23T20:09:56.113Z,78.56
2023-03-23T20:12:01.223Z,77.48
2023-03-23T20:14:04.992Z,75.17
2023-03-23T20:16:12.265Z,73.92
2023-03-23T20:18:18.940Z,73.29
2023-03-23T20:20:23.434Z,73.05
2023-03-23T20:22:29.020Z,72.90
2023-03-23T20:24:33.850Z,72.77
2023-03-23T20:26:39.124Z,72.15
2023-03-23T20:28:46.806Z,72.41
2023-03-23T20:31:19.435Z,71.62
2023-03-23T20:33:30.659Z,71.53
2023-03-23T20:35:35.030Z,71.61
2023-03-23T20:37:41.343Z,71.65
2023-03-23T20:39:48.165Z,71.73
2023-03-23T20:41:54.888Z,72.58
2023-03-23T20:44:00.398Z,72.36
2023-03-23T20:46:07.785Z,72.47
2023-03-23T20:48:12.643Z,72.88
2023-03-23T20:50:18.794Z,73.51
2023-03-23T20:52:23.219Z,73.55
2023-03-23T20:54:29.109Z,73.85
2023-03-23T20:56:35.655Z,73.52
2023-03-23T20:58:41.137Z,73.95
2023-03-23T21:00:47.377Z,73.78
2023-03-23T21:02:54.358Z,73.40
2023-03-23T21:04:58.390Z,73.66
2023-03-23T21:07:04.038Z,73.45
2023-03-23T21:09:09.913Z,73.06
2023-03-23T21:11:19.355Z,72.87
2023-03-23T21:13:23.314Z,73.34
2023-03-23T21:15:28.960Z,72.86
2023-03-23T21:17:32.760Z,73.66
2023-03-23T21:19:37.214Z,73.74
2023-03-23T21:21:56.842Z,73.90
2023-03-23T21:24:03.233Z,74.16
2023-03-23T21:26:11.779Z,73.60
2023-03-23T21:28:17.523Z,73.80
2023-03-23T21:30:22.775Z,74.08
2023-03-23T21:32:27.110Z,74.40
2023-03-23T21:34:32.678Z,74.03
2023-03-23T21:36:37.486Z,74.12
2023-03-23T21:38:41.302Z,74.83
2023-03-23T21:40:49.720Z,75.22
2023-03-23T21:42:54.123Z,74.91
2023-03-23T21:45:02.885Z,74.97
2023-03-23T21:47:06.747Z,75.34
2023-03-23T21:49:14.954Z,75.12
2023-03-23T21:51:22.128Z,75.57
2023-03-23T21:53:27.528Z,75.36
2023-03-23T21:55:31.959Z,75.31
2023-03-23T21:57:38.329Z,75.60
2023-03-23T21:59:43.213Z,75.73
2023-03-23T22:01:48.218Z,76.56
2023-03-23T22:03:53.751Z,76.43
2023-03-23T22:05:57.848Z,76.78
2023-03-23T22:08:01.925Z,76.57
2023-03-23T22:10:06.515Z,76.75
2023-03-23T22:12:10.700Z,76.74
2023-03-23T22:14:16.518Z,76.94
2023-03-23T22:16:21.624Z,77.15
2023-03-23T22:18:25.995Z,77.49
2023-03-23T22:20:30.474Z,77.53
2023-03-23T22:22:35.136Z,76.91
2023-03-23T22:24:39.248Z,77.32
2023-03-23T22:26:43.112Z,76.55
2023-03-23T22:28:49.835Z,77.01
2023-03-23T22:30:55.945Z,76.84
2023-03-23T22:32:59.695Z,76.75
2023-03-23T22:35:03.806Z,76.59
2023-03-23T22:37:08.596Z,76.29
2023-03-23T22:39:12.819Z,76.52
2023-03-23T22:41:19.010Z,75.94
2023-03-23T22:43:23.400Z,76.22
2023-03-23T22:45:28.242Z,76.35
2023-03-23T22:47:34.638Z,76.48
2023-03-23T22:49:38.627Z,76.25
2023-03-23T22:51:43.079Z,76.11
2023-03-23T22:53:47.985Z,76.46
2023-03-23T22:55:55.256Z,76.04
2023-03-23T22:57:58.830Z,76.19
2023-03-23T23:00:02.848Z,75.92
2023-03-23T23:02:07.038Z,75.80
2023-03-23T23:04:12.066Z,75.92
2023-03-23T23:06:17.502Z,75.85
2023-03-23T23:08:21.507Z,75.75
2023-03-23T23:10:25.697Z,75.83
2023-03-23T23:12:31.992Z,75.83
2023-03-23T23:14:36.279Z,76.00
2023-03-23T23:16:40.405Z,76.18
2023-03-23T23:18:44.147Z,76.21
2023-03-23T23:20:52.401Z,75.85
2023-03-23T23:22:56.045Z,76.34
2023-03-23T23:24:59.832Z,76.26
2023-03-23T23:27:03.964Z,76.72
2023-03-23T23:29:07.805Z,76.76
2023-03-23T23:31:22.678Z,77.07
2023-03-23T23:33:27.018Z,77.07
2023-03-23T23:35:31.033Z,77.30
2023-03-23T23:37:36.033Z,77.33
2023-03-23T23:39:41.435Z,77.65
2023-03-23T23:41:45.313Z,77.55
2023-03-23T23:43:54.701Z,78.25
2023-03-23T23:46:00.347Z,77.75
2023-03-23T23:48:04.135Z,77.51
2023-03-23T23:50:09.934Z,77.60
2023-03-23T23:52:13.867Z,77.59
2023-03-23T23:54:22.889Z,77.68
2023-03-23T23:56:26.953Z,77.44
2023-03-23T23:58:30.614Z,77.87
